• Join FlightAware (Why Join?)
  • Login
  • US Flag 
06:04PM EDT


 

Airport Tracker/Info


-or-


 

Live Flight TrackerFlight Track Log ✈ SWA525 ✈ 24-Apr-2013 ✈ KMCO - KSTL

Flight Track Log - Related Links

Times and Time Zones

All times are in EDT time to prevent confusion due to time zone crossing. See the SWA525 flight status page for this flight to view local times or setup timezone preferences in your user account.

Time Position Orientation Groundspeed Altitude Reporting Facility
EDT Latitude Longitude Course Direction KTS MPH feet Rate Location/Type
08:35PM 28.3667 -81.3500 233° Southwest 224 258 3,000  Level Orlando TRACON
08:36PM 28.3500 -81.4167 254° West 239 275 5,300 2,580 Climbing Orlando TRACON
08:37PM 28.3500 -81.5000 270° West 277 319 8,500 2,700 Climbing Orlando TRACON
08:38PM 28.3500 -81.6000 270° West 283 326 10,700 2,160 Climbing Orlando TRACON
08:40PM 28.4167 -81.9824 270° West  Level FlightAware Approximate
08:41PM 28.3419 -81.8736 268° West 361 415 16,200  Level Jacksonville Center
08:42PM 28.3428 -81.9800 271° West 372 428 18,600 2,100 Climbing Jacksonville Center
08:43PM 28.3417 -82.1000 269° West 372 428 20,400 2,040 Climbing Jacksonville Center
08:44PM 28.3631 -82.2178 282° West 377 434 22,700 1,980 Climbing Jacksonville Center
08:45PM 28.4428 -82.3000 318° Northwest 359 413 24,400 2,100 Climbing Jacksonville Center
08:46PM 28.5369 -82.3703 327° Northwest 369 425 26,900 1,860 Climbing Jacksonville Center
08:47PM 28.6292 -82.4336 329° Northwest 380 437 28,200 1,140 Climbing Jacksonville Center
08:48PM 28.7169 -82.5044 325° Northwest 386 444 29,200 1,020 Climbing Jacksonville Center
08:49PM 28.8131 -82.5728 328° Northwest 391 450 30,300 1,260 Climbing Jacksonville Center
08:50PM 28.9072 -82.6436 327° Northwest 403 464 31,800 1,500 Climbing Jacksonville Center
08:51PM 29.0014 -82.7144 327° Northwest 403 464 33,400 1,560 Climbing Jacksonville Center
08:52PM 29.0911 -82.7808 327° Northwest 395 455 35,000 1,200 Climbing Jacksonville Center
08:53PM 29.1808 -82.8497 326° Northwest 395 455 35,900 480 Climbing Jacksonville Center
08:54PM 29.2728 -82.9189 327° Northwest 395 455 36,000  Climbing Jacksonville Center
08:55PM 29.3647 -82.9856 328° Northwest 395 455 36,000  Level Jacksonville Center
08:56PM 29.4542 -83.0547 326° Northwest 395 455 36,000  Level Jacksonville Center
08:57PM 29.5564 -83.1336 326° Northwest 400 460 36,000  Level Jacksonville Center
08:58PM 29.6503 -83.2033 327° Northwest 397 457 36,000  Level Jacksonville Center
08:59PM 29.7294 -83.2656 326° Northwest 402 463 36,000  Level Jacksonville Center
09:00PM 29.8314 -83.3403 328° Northwest 396 456 36,000  Level Jacksonville Center
09:01PM 29.9231 -83.4078 327° Northwest 396 456 36,000  Level Jacksonville Center
09:02PM 30.0147 -83.4803 326° Northwest 396 456 36,000  Level Jacksonville Center
09:03PM 30.1042 -83.5481 327° Northwest 391 450 36,000  Level Jacksonville Center
09:04PM 30.1956 -83.6158 327° Northwest 391 450 36,000  Level Jacksonville Center
09:05PM 30.2850 -83.6864 326° Northwest 391 450 36,000  Level Jacksonville Center
09:06PM 30.3742 -83.7544 327° Northwest 391 450 36,000  Level Jacksonville Center
09:07PM 30.4636 -83.8228 327° Northwest 391 450 36,000  Level Jacksonville Center
09:08PM 30.5508 -83.8911 326° Northwest 391 450 36,000  Level Jacksonville Center
09:09PM 30.6297 -83.9525 326° Northwest 386 444 36,000  Level Jacksonville Center
09:10PM 30.7167 -84.0211 326° Northwest 381 438 36,000  Level Jacksonville Center
09:11PM 30.8058 -84.0897 327° Northwest 381 438 36,000  Level Jacksonville Center
09:12PM 30.8928 -84.1564 327° Northwest 376 433 36,000  Level Jacksonville Center
09:13PM 30.9778 -84.2228 326° Northwest 376 433 36,000  Level Jacksonville Center
09:14PM 31.0669 -84.2944 325° Northwest 376 433 36,000  Level Jacksonville Center
09:15PM 31.1517 -84.3614 326° Northwest 376 433 36,000  Level Jacksonville Center
09:16PM 31.2364 -84.4281 326° Northwest 376 433 36,000  Level Jacksonville Center
09:18PM 31.3950 -84.5544 326° Northwest 384 442 36,000  Level Atlanta Center
09:19PM 31.4822 -84.6233 326° Northwest 379 436 36,000  Level Atlanta Center
09:20PM 31.5717 -84.6944 326° Northwest 379 436 36,000  Level Atlanta Center
09:21PM 31.6611 -84.7636 327° Northwest 379 436 36,000  Level Atlanta Center
09:22PM 31.7483 -84.8350 325° Northwest 379 436 36,000  Level Atlanta Center
09:23PM 31.8397 -84.9067 326° Northwest 379 436 36,000  Level Atlanta Center
09:24PM 31.9331 -84.9811 326° Northwest 384 442 36,000  Level Atlanta Center
09:25PM 32.0242 -85.0531 326° Northwest 389 448 36,000  Level Atlanta Center
09:26PM 32.1114 -85.1253 325° Northwest 394 453 36,000  Level Atlanta Center
09:27PM 32.2025 -85.1950 327° Northwest 394 453 36,000  Level Atlanta Center
09:29PM 32.3470 -85.3114 326° Northwest  Level FlightAware Approximate
09:30PM 32.4736 -85.4128 326° Northwest 399 459 36,000  Level Atlanta Center
09:31PM 32.5647 -85.4881 325° Northwest 397 457 36,000  Level Atlanta Center
09:32PM 32.6536 -85.5611 325° Northwest 397 457 36,000  Level Atlanta Center
09:33PM 32.7569 -85.6444 326° Northwest 398 458 36,000  Level Atlanta Center
09:34PM 32.8436 -85.7175 325° Northwest 393 452 36,000  Level Atlanta Center
09:35PM 32.9344 -85.7911 326° Northwest 393 452 36,000  Level Atlanta Center
09:36PM 33.0231 -85.8647 325° Northwest 393 452 36,000  Level Atlanta Center
09:37PM 33.1117 -85.9361 326° Northwest 393 452 36,000  Level Atlanta Center
09:38PM 33.2025 -86.0125 325° Northwest 393 452 36,000  Level Atlanta Center
09:39PM 33.2928 -86.0942 323° Northwest 393 452 36,000  Level Atlanta Center
09:40PM 33.3836 -86.1608 329° Northwest 398 458 36,000  Level Atlanta Center
09:41PM 33.4742 -86.2403 324° Northwest 398 458 36,000  Level Atlanta Center
09:42PM 33.5625 -86.3147 325° Northwest 398 458 36,000  Level Atlanta Center
09:43PM 33.6406 -86.3794 325° Northwest 393 452 36,000  Level Atlanta Center
09:44PM 33.7289 -86.4542 325° Northwest 393 452 36,000  Level Atlanta Center
09:45PM 33.8172 -86.5292 325° Northwest 393 452 36,000  Level Atlanta Center
09:46PM 33.9053 -86.6042 325° Northwest 393 452 36,000  Level Atlanta Center
09:48PM 34.0936 -86.7681 324° Northwest 389 448 36,000  Level Memphis Center
09:49PM 34.1814 -86.8422 325° Northwest 384 442 36,000  Level Memphis Center
09:50PM 34.2581 -86.9042 326° Northwest 384 442 36,000  Level Memphis Center
09:51PM 34.3461 -86.9864 322° Northwest 389 448 36,000  Level Memphis Center
09:52PM 34.4333 -87.0533 328° Northwest 384 442 36,000  Level Memphis Center
09:53PM 34.5167 -87.1308 323° Northwest 384 442 36,000  Level Memphis Center
09:54PM 34.6019 -87.2033 325° Northwest 384 442 36,000  Level Memphis Center
09:55PM 34.6875 -87.2808 323° Northwest 384 442 36,000  Level Memphis Center
09:56PM 34.7792 -87.3583 325° Northwest 375 432 36,000  Level Memphis Center
09:57PM 34.8644 -87.4339 324° Northwest 375 432 36,000  Level Memphis Center
09:58PM 34.9494 -87.5069 325° Northwest 375 432 36,000  Level Memphis Center
09:59PM 35.0306 -87.5803 323° Northwest 375 432 36,000  Level Memphis Center
10:00PM 35.1133 -87.6536 324° Northwest 375 432 36,000  Level Memphis Center
10:01PM 35.1919 -87.7172 327° Northwest 375 432 36,000  Level Memphis Center
10:02PM 35.2750 -87.7933 323° Northwest 375 432 36,000  Level Memphis Center
10:03PM 35.3556 -87.8622 325° Northwest 370 426 36,000  Level Memphis Center
10:04PM 35.4364 -87.9414 321° Northwest 370 426 36,000  Level Memphis Center
10:05PM 35.5192 -88.0128 325° Northwest 370 426 36,000  Level Memphis Center
10:06PM 35.6017 -88.0844 325° Northwest 370 426 36,000  Level Memphis Center
10:07PM 35.6928 -88.1586 327° Northwest 363 418 36,000  Level Memphis Center
10:08PM 35.7753 -88.2308 325° Northwest 363 418 36,000  Level Memphis Center
10:09PM 35.8581 -88.3056 324° Northwest 363 418 36,000  Level Memphis Center
10:10PM 35.9383 -88.3803 323° Northwest 363 418 36,000  Level Memphis Center
10:11PM 36.0189 -88.4553 323° Northwest 363 418 36,000  Level Memphis Center
10:12PM 36.1014 -88.5281 325° Northwest 363 418 36,000  Level Memphis Center
10:13PM 36.1817 -88.6008 324° Northwest 363 418 36,000  Level Memphis Center
10:14PM 36.2619 -88.6761 323° Northwest 363 418 36,000  Level Memphis Center
10:15PM 36.3442 -88.7467 325° Northwest 363 418 36,000 -420 Level Memphis Center
10:16PM 36.4242 -88.8225 323° Northwest 363 418 35,200 -660 Descending Memphis Center
10:17PM 36.5064 -88.8983 323° Northwest 363 418 34,700 -600 Descending Memphis Center
10:18PM 36.5886 -88.9744 323° Northwest 363 418 34,000 -360 Descending Memphis Center
10:19PM 36.6622 -89.0456 322° Northwest 368 423 34,000  Level Memphis Center
10:20PM 36.7444 -89.1167 325° Northwest 368 423 34,000  Level Memphis Center
10:21PM 36.8200 -89.1906 322° Northwest 363 418 34,000  Level Memphis Center
10:22PM 36.8978 -89.2647 323° Northwest 363 418 34,000 -1,020 Level Memphis Center
10:24PM 37.0725 -89.4269 323° Northwest 358 412 30,900 -1,800 Descending Kansas City Center
10:25PM 37.1539 -89.5036 323° Northwest 365 420 28,300 -2,460 Descending Kansas City Center
10:26PM 37.2319 -89.5753 324° Northwest 354 407 26,000 -1,200 Descending Kansas City Center
10:27PM 37.3244 -89.6272 336° Northwest 360 414 26,000  Level Kansas City Center
10:28PM 37.4183 -89.6767 337° Northwest 365 420 26,000  Level Kansas City Center
10:29PM 37.5097 -89.7261 337° Northwest 361 415 26,000 -60 Level Kansas City Center
10:30PM 37.6039 -89.7786 336° Northwest 350 403 25,900 -1,260 Descending Kansas City Center
10:31PM 37.6928 -89.8269 337° Northwest 348 400 23,500 -2,340 Descending Kansas City Center
10:32PM 37.7789 -89.8736 337° Northwest 341 392 21,300 -2,220 Descending Kansas City Center
10:33PM 37.8694 -89.9239 336° Northwest 327 376 19,000 -2,280 Descending Kansas City Center
10:34PM 37.8925 -89.8806 56° Northeast 323 372 18,300 -1,800 Descending FAA TRACON SMA TRACON (SMA)
10:34PM 37.9169 -89.8956 334° Northwest 322 371 17,800 -2,340 Descending FAA TRACON SMA TRACON (SMA)
10:34PM 37.9500 -89.9117 339° North 326 375 16,800 -2,580 Descending FAA TRACON SMA TRACON (SMA)
10:35PM 37.9744 -89.9283 332° Northwest 327 376 16,100 -2,100 Descending FAA TRACON SMA TRACON (SMA)
10:35PM 37.9997 -89.9417 337° Northwest 323 372 15,400 -2,280 Descending FAA TRACON SMA TRACON (SMA)
10:35PM 38.0300 -89.9611 333° Northwest 317 365 14,600 -2,160 Descending FAA TRACON SMA TRACON (SMA)
10:36PM 38.0550 -89.9728 340° North 312 359 14,000 -1,980 Descending FAA TRACON SMA TRACON (SMA)
10:36PM 38.0794 -89.9858 337° Northwest 308 354 13,300 -2,220 Descending FAA TRACON SMA TRACON (SMA)
10:36PM 38.1083 -90.0042 333° Northwest 303 349 12,500 -2,280 Descending FAA TRACON SMA TRACON (SMA)
10:37PM 38.1331 -90.0144 342° North 302 348 11,800 -2,160 Descending FAA TRACON SMA TRACON (SMA)
10:37PM 38.1608 -90.0144 360° North 312 359 11,100 -1,800 Descending FAA TRACON SMA TRACON (SMA)
10:37PM 38.1917 -90.0239 346° North 306 352 10,600 -1,200 Descending FAA TRACON SMA TRACON (SMA)
10:38PM 38.2164 -90.0278 353° North 294 338 10,300 -1,080 Descending FAA TRACON SMA TRACON (SMA)
10:38PM 38.2400 -90.0333 350° North 285 328 9,900 -1,200 Descending FAA TRACON SMA TRACON (SMA)
10:38PM 38.2683 -90.0403 349° North 273 314 9,500 -1,320 Descending FAA TRACON SMA TRACON (SMA)
10:39PM 38.2914 -90.0439 353° North 270 311 9,000 -1,380 Descending FAA TRACON SMA TRACON (SMA)
10:39PM 38.3133 -90.0497 348° North 266 306 8,600 -1,500 Descending FAA TRACON SMA TRACON (SMA)
10:39PM 38.3414 -90.0564 349° North 264 304 8,000 -1,200 Descending FAA TRACON SMA TRACON (SMA)
10:40PM 38.3633 -90.0611 350° North 265 305 7,800 -1,200 Descending FAA TRACON SMA TRACON (SMA)
10:40PM 38.3853 -90.0658 350° North 262 302 7,200 -1,800 Descending FAA TRACON SMA TRACON (SMA)
10:40PM 38.4131 -90.0717 351° North 263 303 6,600 -1,740 Descending FAA TRACON SMA TRACON (SMA)
10:41PM 38.4353 -90.0769 349° North 261 300 6,100 -1,500 Descending FAA TRACON SMA TRACON (SMA)
10:41PM 38.4567 -90.0825 349° North 260 299 5,600 -1,800 Descending FAA TRACON SMA TRACON (SMA)
10:41PM 38.4844 -90.0881 351° North 261 300 4,900 -1,980 Descending FAA TRACON SMA TRACON (SMA)
10:42PM 38.5064 -90.0936 349° North 263 303 4,300 -1,740 Descending FAA TRACON SMA TRACON (SMA)
10:42PM 38.5294 -90.0981 351° North 269 310 3,800 -1,200 Descending FAA TRACON SMA TRACON (SMA)
10:42PM 38.5569 -90.1044 350° North 265 305 3,500 -480 Descending FAA TRACON SMA TRACON (SMA)
10:43PM 38.5775 -90.1089 350° North 251 289 3,500  Level FAA TRACON SMA TRACON (SMA)
10:43PM 38.5956 -90.1194 335° Northwest 237 273 3,500  Level FAA TRACON SMA TRACON (SMA)
10:43PM 38.6156 -90.1375 325° Northwest 227 261 3,500 -180 Level FAA TRACON SMA TRACON (SMA)
10:44PM 38.6317 -90.1508 327° Northwest 226 260 3,400 -600 Descending FAA TRACON SMA TRACON (SMA)
10:44PM 38.6469 -90.1642 326° Northwest 221 254 3,100 -780 Descending FAA TRACON SMA TRACON (SMA)
10:44PM 38.6658 -90.1797 327° Northwest 211 243 2,900 -300 Descending FAA TRACON SMA TRACON (SMA)
10:45PM 38.6797 -90.1908 328° Northwest 196 226 2,900 -480 Level FAA TRACON SMA TRACON (SMA)
10:45PM 38.6911 -90.2008 326° Northwest 169 194 2,600 -1,380 Descending FAA TRACON SMA TRACON (SMA)
10:45PM 38.7000 -90.2167 306° West 147 169 2,000 -1,560 Descending FAA TRACON SMA TRACON (SMA)
10:46PM 38.7067 -90.2292 304° West 140 161 1,600 -1,080 Descending FAA TRACON SMA TRACON (SMA)
10:46PM 38.7136 -90.2439 301° West 128 147 1,300 -780 Descending FAA TRACON SMA TRACON (SMA)
10:46PM 38.7194 -90.2553 303° West 122 140 1,100 -660 Descending FAA TRACON SMA TRACON (SMA)
10:47PM 38.7247 -90.2667 301° West 122 140 900 -780 Descending FAA TRACON SMA TRACON (SMA)
10:47PM 38.7328 -90.2811 306° West 127 146 600 -900 Descending FAA TRACON SMA TRACON (SMA)
10:49PM 38.7487 -90.3700 270° West  Level Estimated
10:56PM 38.7487 -90.3700 90° East  Level Estimated